sensor_id;sensor_type;location;lat;lon;timestamp;pressure;altitude;pressure_sealevel;temperature;humidity
3598;BME280;1813;52.016;8.714;2024-03-07T00:02:26;-16261.94;;;-139.71;90.61
3598;BME280;1813;52.016;8.714;2024-03-07T00:04:59;-16261.94;;;-139.71;90.22
3598;BME280;1813;52.016;8.714;2024-03-07T00:07:33;-16261.94;;;-139.71;89.83
3598;BME280;1813;52.016;8.714;2024-03-07T00:10:07;-16261.94;;;-139.71;89.88
3598;BME280;1813;52.016;8.714;2024-03-07T00:12:40;-16261.94;;;-139.71;89.72
3598;BME280;1813;52.016;8.714;2024-03-07T00:15:16;-16261.94;;;-139.71;89.47
3598;BME280;1813;52.016;8.714;2024-03-07T00:17:51;-16261.94;;;-139.71;89.43
3598;BME280;1813;52.016;8.714;2024-03-07T00:20:25;-16261.94;;;-139.71;88.78
3598;BME280;1813;52.016;8.714;2024-03-07T00:22:58;-16261.94;;;-139.71;88.19
3598;BME280;1813;52.016;8.714;2024-03-07T00:25:33;-16261.94;;;-139.71;88.41
3598;BME280;1813;52.016;8.714;2024-03-07T00:28:06;-16261.94;;;-139.71;88.57
3598;BME280;1813;52.016;8.714;2024-03-07T00:30:42;-16261.94;;;-139.71;89.36
3598;BME280;1813;52.016;8.714;2024-03-07T00:33:16;-16261.94;;;-139.71;89.13
3598;BME280;1813;52.016;8.714;2024-03-07T00:35:52;-16261.94;;;-139.71;88.98
3598;BME280;1813;52.016;8.714;2024-03-07T00:38:25;-16261.94;;;-139.71;88.77
3598;BME280;1813;52.016;8.714;2024-03-07T00:40:58;-16261.94;;;-139.71;88.68
3598;BME280;1813;52.016;8.714;2024-03-07T00:43:32;-16261.94;;;-139.71;88.29
3598;BME280;1813;52.016;8.714;2024-03-07T00:46:08;-16261.94;;;-139.71;88.37
3598;BME280;1813;52.016;8.714;2024-03-07T00:48:41;-16261.94;;;-139.71;88.37
3598;BME280;1813;52.016;8.714;2024-03-07T00:51:15;-16261.94;;;-139.71;88.15
3598;BME280;1813;52.016;8.714;2024-03-07T00:53:49;-16261.94;;;-139.71;87.92
3598;BME280;1813;52.016;8.714;2024-03-07T00:56:22;-16261.94;;;-139.71;87.88
3598;BME280;1813;52.016;8.714;2024-03-07T00:58:55;-16261.94;;;-139.71;87.95
3598;BME280;1813;52.016;8.714;2024-03-07T01:01:32;-16261.94;;;-139.71;87.89
3598;BME280;1813;52.016;8.714;2024-03-07T01:04:07;-16261.94;;;-139.71;87.15
3598;BME280;1813;52.016;8.714;2024-03-07T01:06:40;-16261.94;;;-139.71;87.81
3598;BME280;1813;52.016;8.714;2024-03-07T01:09:14;-16261.94;;;-139.71;87.99
3598;BME280;1813;52.016;8.714;2024-03-07T01:11:49;-16261.94;;;-139.71;86.39
3598;BME280;1813;52.016;8.714;2024-03-07T01:14:23;-16261.94;;;-139.71;87.34
3598;BME280;1813;52.016;8.714;2024-03-07T01:16:58;-16261.94;;;-139.71;87.04
3598;BME280;1813;52.016;8.714;2024-03-07T01:19:32;-16261.94;;;-139.71;88.43
3598;BME280;1813;52.016;8.714;2024-03-07T01:22:06;-16261.94;;;-139.71;89.03
3598;BME280;1813;52.016;8.714;2024-03-07T01:24:39;-16261.94;;;-139.71;90.04
3598;BME280;1813;52.016;8.714;2024-03-07T01:27:13;-16261.94;;;-139.71;89.64
3598;BME280;1813;52.016;8.714;2024-03-07T01:29:47;-16261.94;;;-139.71;90.36
3598;BME280;1813;52.016;8.714;2024-03-07T01:32:23;-16261.94;;;-139.71;90.80
3598;BME280;1813;52.016;8.714;2024-03-07T01:34:56;-16261.94;;;-139.71;91.22
3598;BME280;1813;52.016;8.714;2024-03-07T01:37:29;-16261.94;;;-139.71;90.91
3598;BME280;1813;52.016;8.714;2024-03-07T01:40:03;-16261.94;;;-139.71;90.94
3598;BME280;1813;52.016;8.714;2024-03-07T01:42:37;-16261.94;;;-139.71;90.86
3598;BME280;1813;52.016;8.714;2024-03-07T01:45:10;-16261.94;;;-139.71;90.03
3598;BME280;1813;52.016;8.714;2024-03-07T01:47:46;-16261.94;;;-139.71;89.27
3598;BME280;1813;52.016;8.714;2024-03-07T01:50:19;-16261.94;;;-139.71;88.71
3598;BME280;1813;52.016;8.714;2024-03-07T01:52:53;-16261.94;;;-139.71;90.24
3598;BME280;1813;52.016;8.714;2024-03-07T01:55:27;-16261.94;;;-139.71;90.07
3598;BME280;1813;52.016;8.714;2024-03-07T01:58:02;-16261.94;;;-139.71;89.53
3598;BME280;1813;52.016;8.714;2024-03-07T02:00:37;-16261.94;;;-139.71;89.35
3598;BME280;1813;52.016;8.714;2024-03-07T02:03:14;-16261.94;;;-139.71;89.52
3598;BME280;1813;52.016;8.714;2024-03-07T02:05:47;-16261.94;;;-139.71;89.66
3598;BME280;1813;52.016;8.714;2024-03-07T02:08:21;-16261.94;;;-139.71;89.21
3598;BME280;1813;52.016;8.714;2024-03-07T02:10:54;-16261.94;;;-139.71;89.91
3598;BME280;1813;52.016;8.714;2024-03-07T02:13:28;-16261.94;;;-139.71;89.28
3598;BME280;1813;52.016;8.714;2024-03-07T02:16:02;-16261.94;;;-139.71;89.26
3598;BME280;1813;52.016;8.714;2024-03-07T02:18:38;-16261.94;;;-139.71;89.00
3598;BME280;1813;52.016;8.714;2024-03-07T02:21:14;-16261.94;;;-139.71;90.20
3598;BME280;1813;52.016;8.714;2024-03-07T02:23:47;-16261.94;;;-139.71;89.61
3598;BME280;1813;52.016;8.714;2024-03-07T02:26:21;-16261.94;;;-139.71;90.27
3598;BME280;1813;52.016;8.714;2024-03-07T02:28:55;-16261.94;;;-139.71;90.38
3598;BME280;1813;52.016;8.714;2024-03-07T02:31:28;-16261.94;;;-139.71;90.08
3598;BME280;1813;52.016;8.714;2024-03-07T02:34:05;-16261.94;;;-139.71;90.52
3598;BME280;1813;52.016;8.714;2024-03-07T02:36:41;-16261.94;;;-139.71;90.58
3598;BME280;1813;52.016;8.714;2024-03-07T02:39:14;-16261.94;;;-139.71;89.62
3598;BME280;1813;52.016;8.714;2024-03-07T02:41:48;-16261.94;;;-139.71;89.51
3598;BME280;1813;52.016;8.714;2024-03-07T02:44:21;-16261.94;;;-139.71;89.14
3598;BME280;1813;52.016;8.714;2024-03-07T02:46:55;-16261.94;;;-139.71;87.97
3598;BME280;1813;52.016;8.714;2024-03-07T02:49:28;-16261.94;;;-139.71;88.18
3598;BME280;1813;52.016;8.714;2024-03-07T02:52:04;-16261.94;;;-139.71;89.16
3598;BME280;1813;52.016;8.714;2024-03-07T02:54:38;-16261.94;;;-139.71;91.42
3598;BME280;1813;52.016;8.714;2024-03-07T02:57:12;-16261.94;;;-139.71;91.78
3598;BME280;1813;52.016;8.714;2024-03-07T02:59:46;-16261.94;;;-139.71;91.02
3598;BME280;1813;52.016;8.714;2024-03-07T03:02:19;-16261.94;;;-139.71;91.82
3598;BME280;1813;52.016;8.714;2024-03-07T03:04:52;-16261.94;;;-139.71;91.77
3598;BME280;1813;52.016;8.714;2024-03-07T03:07:29;-16261.94;;;-139.71;92.32
3598;BME280;1813;52.016;8.714;2024-03-07T03:10:03;-16261.94;;;-139.71;91.90
3598;BME280;1813;52.016;8.714;2024-03-07T03:12:40;-16261.94;;;-139.71;91.01
3598;BME280;1813;52.016;8.714;2024-03-07T03:15:14;-16261.94;;;-139.71;90.67
3598;BME280;1813;52.016;8.714;2024-03-07T03:17:51;-16261.94;;;-139.71;90.67
3598;BME280;1813;52.016;8.714;2024-03-07T03:20:25;-16261.94;;;-139.71;90.69
3598;BME280;1813;52.016;8.714;2024-03-07T03:23:06;-16261.94;;;-139.71;91.38
3598;BME280;1813;52.016;8.714;2024-03-07T03:25:42;-16261.94;;;-139.71;90.89
3598;BME280;1813;52.016;8.714;2024-03-07T03:28:16;-16261.94;;;-139.71;91.27
3598;BME280;1813;52.016;8.714;2024-03-07T03:30:50;-16261.94;;;-139.71;89.43
3598;BME280;1813;52.016;8.714;2024-03-07T03:33:23;-16261.94;;;-139.71;90.21
3598;BME280;1813;52.016;8.714;2024-03-07T03:35:57;-16261.94;;;-139.71;91.23
3598;BME280;1813;52.016;8.714;2024-03-07T03:38:33;-16261.94;;;-139.71;91.69
3598;BME280;1813;52.016;8.714;2024-03-07T03:41:06;-16261.94;;;-139.71;91.73
3598;BME280;1813;52.016;8.714;2024-03-07T03:43:40;-16261.94;;;-139.71;91.75
3598;BME280;1813;52.016;8.714;2024-03-07T03:46:13;-16261.94;;;-139.71;91.78
3598;BME280;1813;52.016;8.714;2024-03-07T03:48:47;-16261.94;;;-139.71;90.28
3598;BME280;1813;52.016;8.714;2024-03-07T03:51:21;-16261.94;;;-139.71;90.93
3598;BME280;1813;52.016;8.714;2024-03-07T03:53:58;-16261.94;;;-139.71;91.85
3598;BME280;1813;52.016;8.714;2024-03-07T03:56:31;-16261.94;;;-139.71;92.63
3598;BME280;1813;52.016;8.714;2024-03-07T03:59:04;-16261.94;;;-139.71;92.89
3598;BME280;1813;52.016;8.714;2024-03-07T04:01:39;-16261.94;;;-139.71;93.54
3598;BME280;1813;52.016;8.714;2024-03-07T04:04:13;-16261.94;;;-139.71;93.43
3598;BME280;1813;52.016;8.714;2024-03-07T04:06:46;-16261.94;;;-139.71;92.50
3598;BME280;1813;52.016;8.714;2024-03-07T04:09:22;-16261.94;;;-139.71;91.46
3598;BME280;1813;52.016;8.714;2024-03-07T04:11:59;-16261.94;;;-139.71;91.92
3598;BME280;1813;52.016;8.714;2024-03-07T04:14:32;-16261.94;;;-139.71;93.43
3598;BME280;1813;52.016;8.714;2024-03-07T04:17:06;-16261.94;;;-139.71;93.70
3598;BME280;1813;52.016;8.714;2024-03-07T04:19:41;-16261.94;;;-139.71;93.77
3598;BME280;1813;52.016;8.714;2024-03-07T04:22:15;-16261.94;;;-139.71;93.93
3598;BME280;1813;52.016;8.714;2024-03-07T04:24:52;-16261.94;;;-139.71;93.78
3598;BME280;1813;52.016;8.714;2024-03-07T04:27:27;-16261.94;;;-139.71;91.90
3598;BME280;1813;52.016;8.714;2024-03-07T04:30:01;-16261.94;;;-139.71;90.97
3598;BME280;1813;52.016;8.714;2024-03-07T04:32:34;-16261.94;;;-139.71;92.03
3598;BME280;1813;52.016;8.714;2024-03-07T04:35:08;-16261.94;;;-139.71;92.84
3598;BME280;1813;52.016;8.714;2024-03-07T04:37:42;-16261.94;;;-139.71;93.17
3598;BME280;1813;52.016;8.714;2024-03-07T04:40:18;-16261.94;;;-139.71;93.90
3598;BME280;1813;52.016;8.714;2024-03-07T04:42:52;-16261.94;;;-139.71;93.90
3598;BME280;1813;52.016;8.714;2024-03-07T04:45:27;-16261.94;;;-139.71;95.27
3598;BME280;1813;52.016;8.714;2024-03-07T04:48:02;-16261.94;;;-139.71;96.53
3598;BME280;1813;52.016;8.714;2024-03-07T04:50:35;-16261.94;;;-139.71;96.56
3598;BME280;1813;52.016;8.714;2024-03-07T04:53:08;-16261.94;;;-139.71;97.20
3598;BME280;1813;52.016;8.714;2024-03-07T04:55:44;-16261.94;;;-139.71;96.98
3598;BME280;1813;52.016;8.714;2024-03-07T04:58:18;-16261.94;;;-139.71;97.36
3598;BME280;1813;52.016;8.714;2024-03-07T05:00:51;-16261.94;;;-139.71;98.08
3598;BME280;1813;52.016;8.714;2024-03-07T05:03:25;-16261.94;;;-139.71;98.34
3598;BME280;1813;52.016;8.714;2024-03-07T05:05:58;-16261.94;;;-139.71;98.52
3598;BME280;1813;52.016;8.714;2024-03-07T05:08:31;-16261.94;;;-139.71;98.53
3598;BME280;1813;52.016;8.714;2024-03-07T05:11:07;-16261.94;;;-139.71;98.14
3598;BME280;1813;52.016;8.714;2024-03-07T05:13:41;-16261.94;;;-139.71;97.75
3598;BME280;1813;52.016;8.714;2024-03-07T05:16:15;-16261.94;;;-139.71;97.75
3598;BME280;1813;52.016;8.714;2024-03-07T05:18:50;-16261.94;;;-139.71;97.83
3598;BME280;1813;52.016;8.714;2024-03-07T05:21:23;-16261.94;;;-139.71;98.26
3598;BME280;1813;52.016;8.714;2024-03-07T05:24:06;-16261.94;;;-139.71;98.67
3598;BME280;1813;52.016;8.714;2024-03-07T05:26:43;-16261.94;;;-139.71;98.45
3598;BME280;1813;52.016;8.714;2024-03-07T05:29:16;-16261.94;;;-139.71;98.72
3598;BME280;1813;52.016;8.714;2024-03-07T05:31:49;-16261.94;;;-139.71;98.98
3598;BME280;1813;52.016;8.714;2024-03-07T05:34:22;-16261.94;;;-139.71;98.89
3598;BME280;1813;52.016;8.714;2024-03-07T05:36:58;-16261.94;;;-139.71;98.82
3598;BME280;1813;52.016;8.714;2024-03-07T05:39:33;-16261.94;;;-139.71;98.53
3598;BME280;1813;52.016;8.714;2024-03-07T05:42:09;-16261.94;;;-139.71;98.53
3598;BME280;1813;52.016;8.714;2024-03-07T05:44:44;-16261.94;;;-139.71;98.02
3598;BME280;1813;52.016;8.714;2024-03-07T05:47:18;-16261.94;;;-139.71;97.52
3598;BME280;1813;52.016;8.714;2024-03-07T05:49:52;-16261.94;;;-139.71;97.52
3598;BME280;1813;52.016;8.714;2024-03-07T05:52:25;-16261.94;;;-139.71;97.93
3598;BME280;1813;52.016;8.714;2024-03-07T05:54:58;-16261.94;;;-139.71;98.34
3598;BME280;1813;52.016;8.714;2024-03-07T05:57:35;-16261.94;;;-139.71;98.08
3598;BME280;1813;52.016;8.714;2024-03-07T06:00:11;-16261.94;;;-139.71;98.34
3598;BME280;1813;52.016;8.714;2024-03-07T06:02:45;-16261.94;;;-139.71;98.84
3598;BME280;1813;52.016;8.714;2024-03-07T06:05:20;-16261.94;;;-139.71;99.38
3598;BME280;1813;52.016;8.714;2024-03-07T06:07:54;-16261.94;;;-139.71;99.35
3598;BME280;1813;52.016;8.714;2024-03-07T06:10:29;-16261.94;;;-139.71;99.14
3598;BME280;1813;52.016;8.714;2024-03-07T06:13:06;-16261.94;;;-139.71;99.01
3598;BME280;1813;52.016;8.714;2024-03-07T06:15:40;-16261.94;;;-139.71;98.85
3598;BME280;1813;52.016;8.714;2024-03-07T06:18:13;-16261.94;;;-139.71;99.25
3598;BME280;1813;52.016;8.714;2024-03-07T06:20:47;-16261.94;;;-139.71;99.79
3598;BME280;1813;52.016;8.714;2024-03-07T06:23:21;-16261.94;;;-139.71;100.00
3598;BME280;1813;52.016;8.714;2024-03-07T06:25:54;-16261.94;;;-139.71;100.00
3598;BME280;1813;52.016;8.714;2024-03-07T06:28:32;-16261.94;;;-139.71;100.00
3598;BME280;1813;52.016;8.714;2024-03-07T06:31:06;-16261.94;;;-139.71;99.54
3598;BME280;1813;52.016;8.714;2024-03-07T06:33:40;-16261.94;;;-139.71;99.45
3598;BME280;1813;52.016;8.714;2024-03-07T06:36:14;-16261.94;;;-139.71;99.86
3598;BME280;1813;52.016;8.714;2024-03-07T06:38:47;-16261.94;;;-139.71;99.76
3598;BME280;1813;52.016;8.714;2024-03-07T06:41:20;-16261.94;;;-139.71;100.00
3598;BME280;1813;52.016;8.714;2024-03-07T06:43:58;-16261.94;;;-139.71;99.72
3598;BME280;1813;52.016;8.714;2024-03-07T06:46:31;-16261.94;;;-139.71;100.00
3598;BME280;1813;52.016;8.714;2024-03-07T06:49:05;-16261.94;;;-139.71;99.81
3598;BME280;1813;52.016;8.714;2024-03-07T06:51:40;-16261.94;;;-139.71;99.61
3598;BME280;1813;52.016;8.714;2024-03-07T06:54:14;-16261.94;;;-139.71;99.93
3598;BME280;1813;52.016;8.714;2024-03-07T06:56:50;-16261.94;;;-139.71;99.78
3598;BME280;1813;52.016;8.714;2024-03-07T06:59:26;-16261.94;;;-139.71;99.70
3598;BME280;1813;52.016;8.714;2024-03-07T07:01:59;-16261.94;;;-139.71;99.45
3598;BME280;1813;52.016;8.714;2024-03-07T07:04:33;-16261.94;;;-139.71;99.64
3598;BME280;1813;52.016;8.714;2024-03-07T07:07:12;-16261.94;;;-139.71;99.58
3598;BME280;1813;52.016;8.714;2024-03-07T07:09:45;-16261.94;;;-139.71;99.25
3598;BME280;1813;52.016;8.714;2024-03-07T07:12:23;-16261.94;;;-139.71;98.64
3598;BME280;1813;52.016;8.714;2024-03-07T07:14:59;-16261.94;;;-139.71;98.49
3598;BME280;1813;52.016;8.714;2024-03-07T07:17:33;-16261.94;;;-139.71;98.01
3598;BME280;1813;52.016;8.714;2024-03-07T07:20:08;-16261.94;;;-139.71;98.15
3598;BME280;1813;52.016;8.714;2024-03-07T07:22:46;-16261.94;;;-139.71;98.34
3598;BME280;1813;52.016;8.714;2024-03-07T07:25:20;-16261.94;;;-139.71;98.21
3598;BME280;1813;52.016;8.714;2024-03-07T07:27:54;-16261.94;;;-139.71;98.19
3598;BME280;1813;52.016;8.714;2024-03-07T07:30:30;-16261.94;;;-139.71;97.88
3598;BME280;1813;52.016;8.714;2024-03-07T07:33:04;-16261.94;;;-139.71;97.47
3598;BME280;1813;52.016;8.714;2024-03-07T07:35:37;-16261.94;;;-139.71;97.54
3598;BME280;1813;52.016;8.714;2024-03-07T07:38:15;-16261.94;;;-139.71;97.52
3598;BME280;1813;52.016;8.714;2024-03-07T07:40:49;-16261.94;;;-139.71;97.30
3598;BME280;1813;52.016;8.714;2024-03-07T07:43:22;-16261.94;;;-139.71;97.76
3598;BME280;1813;52.016;8.714;2024-03-07T07:45:58;-16261.94;;;-139.71;97.83
3598;BME280;1813;52.016;8.714;2024-03-07T07:48:31;-16261.94;;;-139.71;98.23
3598;BME280;1813;52.016;8.714;2024-03-07T07:51:05;-16261.94;;;-139.71;98.19
3598;BME280;1813;52.016;8.714;2024-03-07T07:53:38;-16261.94;;;-139.71;98.25
3598;BME280;1813;52.016;8.714;2024-03-07T07:56:11;-16261.94;;;-139.71;98.60
3598;BME280;1813;52.016;8.714;2024-03-07T07:58:45;-16261.94;;;-139.71;98.98
3598;BME280;1813;52.016;8.714;2024-03-07T08:01:22;-16261.94;;;-139.71;98.31
3598;BME280;1813;52.016;8.714;2024-03-07T08:03:55;-16261.94;;;-139.71;97.83
3598;BME280;1813;52.016;8.714;2024-03-07T08:06:29;-16261.94;;;-139.71;98.24
3598;BME280;1813;52.016;8.714;2024-03-07T08:09:02;-16261.94;;;-139.71;98.62
3598;BME280;1813;52.016;8.714;2024-03-07T08:11:37;-16261.94;;;-139.71;98.07
3598;BME280;1813;52.016;8.714;2024-03-07T08:14:12;-16261.94;;;-139.71;97.62
3598;BME280;1813;52.016;8.714;2024-03-07T08:16:50;-16261.94;;;-139.71;98.16
3598;BME280;1813;52.016;8.714;2024-03-07T08:19:25;-16261.94;;;-139.71;98.19
3598;BME280;1813;52.016;8.714;2024-03-07T08:21:59;-16261.94;;;-139.71;98.36
3598;BME280;1813;52.016;8.714;2024-03-07T08:24:32;-16261.94;;;-139.71;97.95
3598;BME280;1813;52.016;8.714;2024-03-07T08:27:06;-16261.94;;;-139.71;97.81
3598;BME280;1813;52.016;8.714;2024-03-07T08:29:41;-16261.94;;;-139.71;97.44
3598;BME280;1813;52.016;8.714;2024-03-07T08:32:17;-16261.94;;;-139.71;97.55
3598;BME280;1813;52.016;8.714;2024-03-07T08:34:51;-16261.94;;;-139.71;97.76
3598;BME280;1813;52.016;8.714;2024-03-07T08:37:25;-16261.94;;;-139.71;97.72
3598;BME280;1813;52.016;8.714;2024-03-07T08:39:58;-16261.94;;;-139.71;97.98
3598;BME280;1813;52.016;8.714;2024-03-07T08:42:32;-16261.94;;;-139.71;98.28
3598;BME280;1813;52.016;8.714;2024-03-07T08:45:06;-16261.94;;;-139.71;98.59
3598;BME280;1813;52.016;8.714;2024-03-07T08:47:45;-16261.94;;;-139.71;98.81
3598;BME280;1813;52.016;8.714;2024-03-07T08:50:19;-16261.94;;;-139.71;99.26
3598;BME280;1813;52.016;8.714;2024-03-07T08:52:53;-16261.94;;;-139.71;99.43
3598;BME280;1813;52.016;8.714;2024-03-07T08:55:26;-16261.94;;;-139.71;99.90
3598;BME280;1813;52.016;8.714;2024-03-07T08:58:00;-16261.94;;;-139.71;100.00
3598;BME280;1813;52.016;8.714;2024-03-07T09:00:33;-16261.94;;;-139.71;100.00
3598;BME280;1813;52.016;8.714;2024-03-07T09:03:10;-16261.94;;;-139.71;100.00
3598;BME280;1813;52.016;8.714;2024-03-07T09:05:43;-16261.94;;;-139.71;100.00
3598;BME280;1813;52.016;8.714;2024-03-07T09:08:17;-16261.94;;;-139.71;100.00
3598;BME280;1813;52.016;8.714;2024-03-07T09:10:50;-16261.94;;;-139.71;100.00
3598;BME280;1813;52.016;8.714;2024-03-07T09:13:25;-16261.94;;;-139.71;100.00
3598;BME280;1813;52.016;8.714;2024-03-07T09:15:58;-16261.94;;;-139.71;100.00
3598;BME280;1813;52.016;8.714;2024-03-07T09:18:38;-16261.94;;;-139.71;100.00
3598;BME280;1813;52.016;8.714;2024-03-07T09:21:13;-16261.94;;;-139.71;100.00
3598;BME280;1813;52.016;8.714;2024-03-07T09:23:47;-16261.94;;;-139.71;100.00
3598;BME280;1813;52.016;8.714;2024-03-07T09:26:20;-16261.94;;;-139.71;100.00
3598;BME280;1813;52.016;8.714;2024-03-07T09:28:54;-16261.94;;;-139.71;100.00
3598;BME280;1813;52.016;8.714;2024-03-07T09:31:27;-16261.94;;;-139.71;100.00
3598;BME280;1813;52.016;8.714;2024-03-07T09:34:04;-16261.94;;;-139.71;100.00
3598;BME280;1813;52.016;8.714;2024-03-07T09:36:38;-16261.94;;;-139.71;100.00
3598;BME280;1813;52.016;8.714;2024-03-07T09:39:12;-16261.94;;;-139.71;100.00
3598;BME280;1813;52.016;8.714;2024-03-07T09:41:46;-16261.94;;;-139.71;100.00
3598;BME280;1813;52.016;8.714;2024-03-07T09:44:20;-16261.94;;;-139.71;100.00
3598;BME280;1813;52.016;8.714;2024-03-07T09:46:58;-16261.94;;;-139.71;100.00
3598;BME280;1813;52.016;8.714;2024-03-07T09:49:36;-16261.94;;;-139.71;100.00
3598;BME280;1813;52.016;8.714;2024-03-07T09:52:10;-16261.94;;;-139.71;100.00
3598;BME280;1813;52.016;8.714;2024-03-07T09:54:45;-16261.94;;;-139.71;100.00
3598;BME280;1813;52.016;8.714;2024-03-07T09:57:19;-16261.94;;;-139.71;100.00
3598;BME280;1813;52.016;8.714;2024-03-07T09:59:55;-16261.94;;;-139.71;100.00
3598;BME280;1813;52.016;8.714;2024-03-07T10:02:32;-16261.94;;;-139.71;100.00
3598;BME280;1813;52.016;8.714;2024-03-07T10:05:14;-16261.94;;;-139.71;100.00
3598;BME280;1813;52.016;8.714;2024-03-07T10:07:49;-16261.94;;;-139.71;100.00
3598;BME280;1813;52.016;8.714;2024-03-07T10:10:23;-16261.94;;;-139.71;100.00
3598;BME280;1813;52.016;8.714;2024-03-07T10:12:57;-16261.94;;;-139.71;100.00
3598;BME280;1813;52.016;8.714;2024-03-07T10:15:31;-16261.94;;;-139.71;100.00
3598;BME280;1813;52.016;8.714;2024-03-07T10:18:07;-16261.94;;;-139.71;100.00
3598;BME280;1813;52.016;8.714;2024-03-07T10:20:44;-16261.94;;;-139.71;100.00
3598;BME280;1813;52.016;8.714;2024-03-07T10:23:19;-16261.94;;;-139.71;100.00
3598;BME280;1813;52.016;8.714;2024-03-07T10:25:52;-16261.94;;;-139.71;100.00
3598;BME280;1813;52.016;8.714;2024-03-07T10:28:27;-16261.94;;;-139.71;100.00
3598;BME280;1813;52.016;8.714;2024-03-07T10:31:01;-16261.94;;;-139.71;100.00
3598;BME280;1813;52.016;8.714;2024-03-07T10:33:42;-16261.94;;;-139.71;100.00
3598;BME280;1813;52.016;8.714;2024-03-07T10:36:20;-16261.94;;;-139.71;100.00
3598;BME280;1813;52.016;8.714;2024-03-07T10:38:53;-16261.94;;;-139.71;100.00
3598;BME280;1813;52.016;8.714;2024-03-07T10:41:28;-16261.94;;;-139.71;100.00
3598;BME280;1813;52.016;8.714;2024-03-07T10:44:03;-16261.94;;;-139.71;100.00
3598;BME280;1813;52.016;8.714;2024-03-07T10:46:37;-16261.94;;;-139.71;100.00
3598;BME280;1813;52.016;8.714;2024-03-07T10:49:15;-16261.94;;;-139.71;100.00
3598;BME280;1813;52.016;8.714;2024-03-07T10:52:00;-16261.94;;;-139.71;100.00
3598;BME280;1813;52.016;8.714;2024-03-07T10:54:39;-16261.94;;;-139.71;100.00
3598;BME280;1813;52.016;8.714;2024-03-07T10:57:20;-16261.94;;;-139.71;100.00
3598;BME280;1813;52.016;8.714;2024-03-07T11:00:00;-16261.94;;;-139.71;100.00
3598;BME280;1813;52.016;8.714;2024-03-07T11:02:46;-16261.94;;;-139.71;100.00
3598;BME280;1813;52.016;8.714;2024-03-07T11:05:21;-16261.94;;;-139.71;100.00
3598;BME280;1813;52.016;8.714;2024-03-07T11:08:03;-16261.94;;;-139.71;100.00
3598;BME280;1813;52.016;8.714;2024-03-07T11:10:42;-16261.94;;;-139.71;100.00
3598;BME280;1813;52.016;8.714;2024-03-07T11:13:17;-16261.94;;;-139.71;100.00
3598;BME280;1813;52.016;8.714;2024-03-07T11:15:52;-16261.94;;;-139.71;100.00
3598;BME280;1813;52.016;8.714;2024-03-07T11:18:28;-16261.94;;;-139.71;100.00
3598;BME280;1813;52.016;8.714;2024-03-07T11:21:02;-16261.94;;;-139.71;100.00
3598;BME280;1813;52.016;8.714;2024-03-07T11:23:44;-16261.94;;;-139.71;100.00
3598;BME280;1813;52.016;8.714;2024-03-07T11:26:18;-16261.94;;;-139.71;100.00
3598;BME280;1813;52.016;8.714;2024-03-07T11:28:53;-16261.94;;;-139.71;100.00
3598;BME280;1813;52.016;8.714;2024-03-07T11:31:29;-16261.94;;;-139.71;99.99
3598;BME280;1813;52.016;8.714;2024-03-07T11:34:12;-16261.94;;;-139.71;99.50
3598;BME280;1813;52.016;8.714;2024-03-07T11:36:49;-16261.94;;;-139.71;99.41
3598;BME280;1813;52.016;8.714;2024-03-07T11:39:44;-16261.94;;;-139.71;99.17
3598;BME280;1813;52.016;8.714;2024-03-07T11:42:25;-16261.94;;;-139.71;98.66
3598;BME280;1813;52.016;8.714;2024-03-07T11:45:02;-16261.94;;;-139.71;97.69
3598;BME280;1813;52.016;8.714;2024-03-07T11:47:38;-16261.94;;;-139.71;97.36
3598;BME280;1813;52.016;8.714;2024-03-07T11:50:11;-16261.94;;;-139.71;97.34
3598;BME280;1813;52.016;8.714;2024-03-07T11:52:50;-16261.94;;;-139.71;96.70
3598;BME280;1813;52.016;8.714;2024-03-07T11:55:28;-16261.94;;;-139.71;96.82
3598;BME280;1813;52.016;8.714;2024-03-07T11:58:12;-16261.94;;;-139.71;96.71
3598;BME280;1813;52.016;8.714;2024-03-07T12:00:47;-16261.94;;;-139.71;94.75
3598;BME280;1813;52.016;8.714;2024-03-07T12:03:21;-16261.94;;;-139.71;94.13
3598;BME280;1813;52.016;8.714;2024-03-07T12:05:55;-16261.94;;;-139.71;93.24
3598;BME280;1813;52.016;8.714;2024-03-07T12:08:29;-16261.94;;;-139.71;93.16
3598;BME280;1813;52.016;8.714;2024-03-07T12:11:06;-16261.94;;;-139.71;94.44
3598;BME280;1813;52.016;8.714;2024-03-07T12:13:44;-16261.94;;;-139.71;93.55
3598;BME280;1813;52.016;8.714;2024-03-07T12:16:18;-16261.94;;;-139.71;92.01
3598;BME280;1813;52.016;8.714;2024-03-07T12:18:52;-16261.94;;;-139.71;91.84
3598;BME280;1813;52.016;8.714;2024-03-07T12:21:25;-16261.94;;;-139.71;90.71
3598;BME280;1813;52.016;8.714;2024-03-07T12:23:59;-16261.94;;;-139.71;87.79
3598;BME280;1813;52.016;8.714;2024-03-07T12:26:48;-16261.94;;;-139.71;90.03
3598;BME280;1813;52.016;8.714;2024-03-07T12:29:26;-16261.94;;;-139.71;88.37
3598;BME280;1813;52.016;8.714;2024-03-07T12:31:59;-16261.94;;;-139.71;87.93
3598;BME280;1813;52.016;8.714;2024-03-07T12:34:33;-16261.94;;;-139.71;85.01
3598;BME280;1813;52.016;8.714;2024-03-07T12:37:08;-16261.94;;;-139.71;83.56
3598;BME280;1813;52.016;8.714;2024-03-07T12:39:42;-16261.94;;;-139.71;79.95
3598;BME280;1813;52.016;8.714;2024-03-07T12:42:34;-16261.94;;;-139.71;80.20
3598;BME280;1813;52.016;8.714;2024-03-07T12:45:08;-16261.94;;;-139.71;82.35
3598;BME280;1813;52.016;8.714;2024-03-07T12:47:51;-16261.94;;;-139.71;79.24
3598;BME280;1813;52.016;8.714;2024-03-07T12:50:25;-16261.94;;;-139.71;75.44
3598;BME280;1813;52.016;8.714;2024-03-07T12:52:58;-16261.94;;;-139.71;76.05
3598;BME280;1813;52.016;8.714;2024-03-07T12:55:36;-16261.94;;;-139.71;73.18
3598;BME280;1813;52.016;8.714;2024-03-07T12:58:14;-16261.94;;;-139.71;73.35
3598;BME280;1813;52.016;8.714;2024-03-07T13:00:50;-16261.94;;;-139.71;76.30
3598;BME280;1813;52.016;8.714;2024-03-07T13:03:20;-16261.94;;;-139.71;77.71
3598;BME280;1813;52.016;8.714;2024-03-07T13:05:59;-16261.94;;;-139.71;78.37
3598;BME280;1813;52.016;8.714;2024-03-07T13:08:35;-16261.94;;;-139.71;79.80
3598;BME280;1813;52.016;8.714;2024-03-07T13:11:08;-16261.94;;;-139.71;77.14
3598;BME280;1813;52.016;8.714;2024-03-07T13:13:44;-16261.94;;;-139.71;75.98
3598;BME280;1813;52.016;8.714;2024-03-07T13:16:18;-16261.94;;;-139.71;75.68
3598;BME280;1813;52.016;8.714;2024-03-07T13:18:51;-16261.94;;;-139.71;75.66
3598;BME280;1813;52.016;8.714;2024-03-07T13:21:25;-16261.94;;;-139.71;75.85
3598;BME280;1813;52.016;8.714;2024-03-07T13:24:01;-16261.94;;;-139.71;74.39
3598;BME280;1813;52.016;8.714;2024-03-07T13:26:35;-16261.94;;;-139.71;76.61
3598;BME280;1813;52.016;8.714;2024-03-07T13:29:11;-16261.94;;;-139.71;75.28